Time;durP1;ratioP1;P1;durP2;ratioP2;P2;SDS_P1;SDS_P2;PMS_P1;PMS_P2;Temp;Humidity;BMP_temperature;BMP_pressure;BME280_temperature;BME280_humidity;BME280_pressure;Samples;Min_cycle;Max_cycle;Signal;HPM_P1;HPM_P2
2021/08/03 00:00:26;;;;;;;4.82;2.60;;;11.60;99.90;;;;;;5076646;28;20700;-73
2021/08/03 00:02:54;;;;;;;3.38;2.33;;;11.70;99.90;;;;;;5056118;28;20075;-73
2021/08/03 00:05:23;;;;;;;4.90;2.30;;;11.70;99.90;;;;;;5077262;28;20039;-73
2021/08/03 00:07:59;;;;;;;2.75;1.52;;;11.60;99.90;;;;;;5073940;28;20037;-73
2021/08/03 00:10:29;;;;;;;4.97;2.30;;;11.60;99.90;;;;;;5073204;28;20534;-73
2021/08/03 00:12:56;;;;;;;4.38;2.40;;;11.60;99.90;;;;;;5089424;28;20044;-73
2021/08/03 00:15:23;;;;;;;3.40;2.30;;;11.60;99.90;;;;;;5074750;28;20238;-72
2021/08/03 00:17:54;;;;;;;3.83;2.40;;;11.50;99.90;;;;;;5057706;28;20046;-72
2021/08/03 00:20:22;;;;;;;5.68;2.25;;;11.50;99.90;;;;;;5079704;28;20047;-72
2021/08/03 00:22:59;;;;;;;3.38;2.20;;;11.50;99.90;;;;;;5069961;28;20049;-73
2021/08/03 00:25:26;;;;;;;3.60;2.13;;;11.50;99.90;;;;;;5089091;28;20533;-73
2021/08/03 00:27:53;;;;;;;4.75;2.80;;;11.50;99.90;;;;;;5070973;28;20475;-73
2021/08/03 00:30:19;;;;;;;3.88;2.40;;;11.50;99.90;;;;;;5074300;28;20530;-73
2021/08/03 00:32:47;;;;;;;5.22;3.28;;;11.50;99.90;;;;;;5070261;28;20040;-73
2021/08/03 00:35:13;;;;;;;4.70;2.60;;;11.40;99.90;;;;;;5074558;28;20033;-73
2021/08/03 00:37:39;;;;;;;3.55;2.20;;;11.40;99.90;;;;;;5070203;28;20739;-73
2021/08/03 00:40:07;;;;;;;6.75;3.20;;;11.30;99.90;;;;;;5073136;28;20044;-73
2021/08/03 00:42:34;;;;;;;5.72;3.00;;;11.30;99.90;;;;;;5072967;28;20051;-72
2021/08/03 00:45:00;;;;;;;6.75;3.65;;;11.30;99.90;;;;;;5075965;28;20036;-72
2021/08/03 00:47:26;;;;;;;4.85;2.60;;;11.30;99.90;;;;;;5068996;28;20142;-72
2021/08/03 00:49:52;;;;;;;4.60;2.60;;;11.30;99.90;;;;;;5067691;28;20042;-73
2021/08/03 00:52:18;;;;;;;4.45;2.20;;;11.30;99.90;;;;;;5074879;28;20115;-73
2021/08/03 00:54:44;;;;;;;2.47;1.65;;;11.30;99.90;;;;;;5051864;28;20459;-73
2021/08/03 00:57:12;;;;;;;3.97;2.17;;;11.30;99.90;;;;;;5070534;28;20040;-73
2021/08/03 00:59:39;;;;;;;3.90;2.00;;;11.20;99.90;;;;;;5066416;28;20071;-72
2021/08/03 01:02:06;;;;;;;7.45;2.90;;;11.10;99.90;;;;;;5074755;28;20093;-72
2021/08/03 01:04:33;;;;;;;4.38;2.65;;;11.20;99.90;;;;;;5070162;28;20044;-72
2021/08/03 01:07:25;;;;;;;2.67;1.92;;;11.20;99.90;;;;;;5072015;28;20655;-72
2021/08/03 01:10:28;;;;;;;7.55;2.67;;;11.10;99.90;;;;;;5068495;28;20036;-72
2021/08/03 01:13:20;;;;;;;3.38;1.88;;;11.10;99.90;;;;;;5075194;28;20106;-73
2021/08/03 01:16:22;;;;;;;5.97;2.47;;;11.00;99.90;;;;;;5068639;28;20581;-73
2021/08/03 01:19:11;;;;;;;3.65;2.22;;;11.00;99.90;;;;;;5075269;28;20491;-72
2021/08/03 01:21:44;;;;;;;4.43;1.80;;;11.00;99.90;;;;;;5071828;28;20249;-74
2021/08/03 01:24:19;;;;;;;3.50;2.45;;;11.00;99.90;;;;;;5070961;28;20494;-74
2021/08/03 01:27:10;;;;;;;3.88;2.53;;;11.00;99.90;;;;;;5073809;28;20136;-75
2021/08/03 01:29:38;;;;;;;3.60;2.17;;;11.00;99.90;;;;;;5070933;28;20037;-75
2021/08/03 01:32:10;;;;;;;3.20;2.03;;;11.00;99.90;;;;;;5069889;28;20406;-75
2021/08/03 01:34:42;;;;;;;3.67;2.13;;;11.00;99.90;;;;;;5069095;28;20475;-75
2021/08/03 01:37:10;;;;;;;4.63;2.20;;;11.00;99.90;;;;;;5051522;28;20051;-73
2021/08/03 01:39:43;;;;;;;4.00;1.98;;;10.90;99.90;;;;;;5079608;28;20037;-73
2021/08/03 01:42:12;;;;;;;5.55;2.30;;;10.90;99.90;;;;;;5076475;28;20043;-73
2021/08/03 01:44:40;;;;;;;4.65;2.00;;;10.90;99.90;;;;;;5068742;28;20048;-73
2021/08/03 01:47:08;;;;;;;4.93;2.10;;;10.90;99.90;;;;;;5058123;28;20041;-73
2021/08/03 01:49:39;;;;;;;5.57;2.38;;;10.90;99.90;;;;;;5078399;28;20040;-73
2021/08/03 01:52:14;;;;;;;4.75;1.88;;;10.80;99.90;;;;;;5071385;28;20039;-73
2021/08/03 01:54:41;;;;;;;5.40;1.73;;;10.80;99.90;;;;;;5074060;28;20048;-72
2021/08/03 01:57:08;;;;;;;4.32;1.88;;;10.70;99.90;;;;;;5076664;28;20032;-72
2021/08/03 01:59:35;;;;;;;4.78;2.28;;;10.70;99.90;;;;;;5036354;28;20047;-72
2021/08/03 02:02:02;;;;;;;4.65;2.40;;;10.60;99.90;;;;;;5075177;28;20036;-72
2021/08/03 02:04:33;;;;;;;8.35;2.50;;;10.60;99.90;;;;;;5075663;28;20113;-71
2021/08/03 02:07:02;;;;;;;4.72;2.30;;;10.60;99.90;;;;;;5073590;28;20049;-74
2021/08/03 02:09:29;;;;;;;3.88;1.80;;;10.60;99.90;;;;;;5074601;28;20036;-72
2021/08/03 02:11:56;;;;;;;4.72;1.77;;;10.50;99.90;;;;;;5079787;28;20642;-72
2021/08/03 02:14:22;;;;;;;8.05;2.65;;;10.50;99.90;;;;;;5069953;28;20046;-73
2021/08/03 02:16:49;;;;;;;4.65;2.03;;;10.50;99.90;;;;;;5079585;28;20738;-72
2021/08/03 02:19:15;;;;;;;3.55;2.33;;;10.40;99.90;;;;;;5096321;28;20075;-72
2021/08/03 02:21:46;;;;;;;5.75;2.83;;;10.40;99.90;;;;;;5079717;28;20056;-72
2021/08/03 02:24:13;;;;;;;7.05;3.42;;;10.40;99.90;;;;;;5073660;28;20086;-72
2021/08/03 02:26:39;;;;;;;4.13;2.70;;;10.50;99.90;;;;;;5071343;28;20036;-73
2021/08/03 02:29:06;;;;;;;5.22;2.78;;;10.40;99.90;;;;;;5045169;28;20040;-72
2021/08/03 02:31:57;;;;;;;6.72;2.20;;;10.40;99.90;;;;;;5062290;28;20051;-72
2021/08/03 02:34:28;;;;;;;4.82;2.33;;;10.50;99.90;;;;;;5081379;28;20035;-72
2021/08/03 02:36:59;;;;;;;3.42;1.95;;;10.50;99.90;;;;;;5080236;28;20039;-72
2021/08/03 02:39:26;;;;;;;3.88;2.20;;;10.60;99.90;;;;;;5084025;28;20032;-73
2021/08/03 02:41:55;;;;;;;3.92;2.50;;;10.60;99.90;;;;;;5078207;28;20491;-72
2021/08/03 02:44:23;;;;;;;3.20;2.20;;;10.60;99.90;;;;;;5070366;28;20979;-72
2021/08/03 02:46:56;;;;;;;3.45;2.20;;;10.60;99.90;;;;;;5076868;28;20033;-74
2021/08/03 02:49:35;;;;;;;3.80;1.80;;;10.60;99.90;;;;;;5073120;28;20048;-75
2021/08/03 02:52:04;;;;;;;5.65;2.45;;;10.60;99.90;;;;;;5080798;28;20032;-75
2021/08/03 02:54:37;;;;;;;7.10;2.60;;;10.60;99.90;;;;;;5072104;28;20033;-75
2021/08/03 02:57:07;;;;;;;5.95;2.85;;;10.60;99.90;;;;;;5068816;28;20044;-75
2021/08/03 02:59:38;;;;;;;4.82;2.63;;;10.50;99.90;;;;;;5078246;28;20555;-75
2021/08/03 03:02:09;;;;;;;5.95;1.98;;;10.40;99.90;;;;;;5078422;28;20150;-74
2021/08/03 03:04:39;;;;;;;3.53;2.00;;;10.40;99.90;;;;;;5081814;28;20047;-74
2021/08/03 03:07:14;;;;;;;4.72;1.80;;;10.40;99.90;;;;;;5077152;28;20483;-74
2021/08/03 03:09:42;;;;;;;3.60;1.92;;;10.40;99.90;;;;;;5081256;28;20048;-74
2021/08/03 03:12:09;;;;;;;3.83;2.03;;;10.40;99.90;;;;;;5060840;28;20072;-73
2021/08/03 03:14:41;;;;;;;6.15;2.55;;;10.40;99.90;;;;;;5077439;28;20101;-74
2021/08/03 03:17:08;;;;;;;5.45;2.50;;;10.50;99.90;;;;;;5081857;28;20027;-75
2021/08/03 03:19:37;;;;;;;6.68;2.70;;;10.50;99.90;;;;;;5078455;28;20050;-75
2021/08/03 03:22:05;;;;;;;7.32;3.05;;;10.40;99.90;;;;;;5081941;28;20032;-74
2021/08/03 03:24:33;;;;;;;4.97;2.08;;;10.40;99.90;;;;;;5065866;28;20037;-75
2021/08/03 03:27:01;;;;;;;6.68;2.75;;;10.40;99.90;;;;;;5082966;28;20127;-75
2021/08/03 03:29:27;;;;;;;3.88;2.35;;;10.50;99.90;;;;;;5056383;28;20627;-76
2021/08/03 03:31:56;;;;;;;5.93;2.53;;;10.50;99.90;;;;;;5070642;28;20666;-76
2021/08/03 03:34:24;;;;;;;6.75;2.13;;;10.60;99.90;;;;;;5085145;28;20546;-76
2021/08/03 03:36:50;;;;;;;5.05;2.40;;;10.50;99.90;;;;;;5061015;28;20507;-76
2021/08/03 03:39:17;;;;;;;4.53;2.65;;;10.50;99.90;;;;;;5071476;28;20047;-75
2021/08/03 03:41:51;;;;;;;3.00;2.22;;;10.60;99.90;;;;;;5089005;28;20044;-74
2021/08/03 03:44:18;;;;;;;5.68;2.58;;;10.50;99.90;;;;;;5084253;28;20040;-74
2021/08/03 03:46:56;;;;;;;3.53;2.50;;;10.60;99.90;;;;;;5084331;28;20123;-75
2021/08/03 03:49:33;;;;;;;6.22;2.70;;;10.50;99.90;;;;;;5068884;28;20049;-74
2021/08/03 03:52:01;;;;;;;7.43;2.38;;;10.60;99.90;;;;;;5077464;28;20052;-74
2021/08/03 03:54:35;;;;;;;4.60;2.08;;;10.50;99.90;;;;;;5083123;28;20146;-74
2021/08/03 03:57:07;;;;;;;5.63;2.08;;;10.70;99.90;;;;;;5071778;28;20036;-74
2021/08/03 03:59:35;;;;;;;4.43;2.33;;;10.60;99.90;;;;;;5080826;28;20399;-75
2021/08/03 04:02:03;;;;;;;6.30;2.67;;;10.60;99.90;;;;;;5085240;28;20040;-75
2021/08/03 04:04:32;;;;;;;4.05;1.92;;;10.70;99.90;;;;;;5085126;28;20479;-75
2021/08/03 04:07:00;;;;;;;3.38;2.25;;;10.80;99.90;;;;;;5085172;28;20043;-74
2021/08/03 04:09:26;;;;;;;4.05;2.25;;;10.80;99.90;;;;;;5076560;28;20044;-74
2021/08/03 04:11:52;;;;;;;4.03;2.55;;;10.80;99.90;;;;;;5068093;28;20044;-74
2021/08/03 04:14:24;;;;;;;4.72;2.42;;;10.90;99.90;;;;;;5070651;28;20044;-75
2021/08/03 04:16:53;;;;;;;6.70;2.80;;;10.90;99.90;;;;;;5078353;28;20506;-75
2021/08/03 04:19:18;;;;;;;5.47;3.63;;;10.90;99.90;;;;;;5086327;28;20036;-74
2021/08/03 04:21:47;;;;;;;7.40;3.35;;;11.00;99.90;;;;;;5066601;28;20051;-74
2021/08/03 04:24:15;;;;;;;6.05;3.13;;;11.00;99.90;;;;;;5065759;28;20102;-74
2021/08/03 04:26:42;;;;;;;5.95;3.20;;;11.10;99.90;;;;;;5088969;28;20097;-75
2021/08/03 04:29:09;;;;;;;3.88;2.55;;;11.10;99.90;;;;;;5085376;28;20079;-74
2021/08/03 04:31:35;;;;;;;4.40;2.58;;;11.10;99.90;;;;;;5078887;28;20036;-74
2021/08/03 04:34:01;;;;;;;9.35;3.90;;;11.20;99.90;;;;;;5065858;28;20113;-74
2021/08/03 04:36:27;;;;;;;6.32;3.78;;;11.20;99.90;;;;;;5070432;28;20123;-75
2021/08/03 04:38:53;;;;;;;6.15;2.63;;;11.30;99.90;;;;;;5077902;28;20439;-74
2021/08/03 04:41:19;;;;;;;6.35;2.88;;;11.40;99.90;;;;;;5058343;28;20138;-74
2021/08/03 04:43:46;;;;;;;6.43;3.58;;;11.40;99.90;;;;;;5066255;28;20506;-74
2021/08/03 04:46:13;;;;;;;5.22;3.30;;;11.50;99.90;;;;;;5085964;28;20040;-75
2021/08/03 04:48:39;;;;;;;8.18;4.07;;;11.50;99.90;;;;;;5084784;28;20478;-74
2021/08/03 04:51:06;;;;;;;4.10;3.10;;;11.60;99.90;;;;;;5079105;28;20394;-74
2021/08/03 04:53:32;;;;;;;6.63;3.83;;;11.70;99.90;;;;;;5078256;28;20043;-75
2021/08/03 04:55:58;;;;;;;5.72;3.30;;;11.70;99.90;;;;;;5071298;28;20044;-74
2021/08/03 04:58:24;;;;;;;7.13;3.45;;;11.70;99.90;;;;;;5082556;28;20044;-74
2021/08/03 05:00:51;;;;;;;8.75;3.70;;;11.70;99.90;;;;;;5083385;28;20660;-73
2021/08/03 05:03:18;;;;;;;4.50;3.05;;;11.80;99.90;;;;;;5059624;28;20057;-74
2021/08/03 05:05:45;;;;;;;8.82;4.50;;;11.80;99.90;;;;;;5083375;28;20498;-74
2021/08/03 05:08:14;;;;;;;5.00;3.55;;;11.80;99.90;;;;;;5055182;28;20372;-75
2021/08/03 05:10:41;;;;;;;9.00;3.80;;;11.80;99.90;;;;;;5075028;28;20051;-74
2021/08/03 05:13:06;;;;;;;7.55;3.70;;;11.90;99.90;;;;;;5084021;28;20035;-75
2021/08/03 05:15:32;;;;;;;7.30;3.83;;;11.90;99.90;;;;;;5072478;28;20101;-74
2021/08/03 05:18:01;;;;;;;5.53;2.35;;;11.90;99.90;;;;;;5079983;28;20052;-75
2021/08/03 05:20:27;;;;;;;8.68;3.83;;;11.90;99.90;;;;;;5070408;28;20057;-75
2021/08/03 05:22:53;;;;;;;5.57;3.45;;;12.00;99.90;;;;;;5063293;28;20491;-75
2021/08/03 05:25:19;;;;;;;4.88;3.20;;;12.10;99.90;;;;;;5078766;28;20486;-73
2021/08/03 05:27:45;;;;;;;6.15;3.50;;;12.10;99.90;;;;;;5085871;28;20109;-72
2021/08/03 05:30:11;;;;;;;6.30;3.50;;;12.10;99.90;;;;;;5057399;28;20040;-72
2021/08/03 05:32:37;;;;;;;9.25;2.92;;;12.20;99.90;;;;;;5061695;28;20040;-73
2021/08/03 05:35:06;;;;;;;8.48;3.80;;;12.20;99.90;;;;;;5085608;28;20051;-73
2021/08/03 05:37:32;;;;;;;6.38;3.75;;;12.20;99.90;;;;;;5088900;28;20494;-72
2021/08/03 05:39:59;;;;;;;4.63;3.30;;;12.30;99.90;;;;;;5074836;28;20043;-73
2021/08/03 05:42:25;;;;;;;4.97;3.38;;;12.30;99.90;;;;;;5077822;28;20032;-75
2021/08/03 05:44:51;;;;;;;7.57;3.50;;;12.30;99.90;;;;;;5082403;28;20081;-73
2021/08/03 05:47:17;;;;;;;6.85;3.53;;;12.40;99.90;;;;;;5074766;28;20043;-72
2021/08/03 05:49:43;;;;;;;11.20;3.72;;;12.40;99.90;;;;;;5070552;28;20490;-72
2021/08/03 05:52:09;;;;;;;9.00;3.33;;;12.40;99.90;;;;;;5071252;28;20048;-72
2021/08/03 05:54:35;;;;;;;7.60;3.70;;;12.50;99.90;;;;;;5049838;28;20044;-72
2021/08/03 05:57:01;;;;;;;6.60;3.30;;;12.60;99.90;;;;;;5069874;28;20043;-72
2021/08/03 05:59:27;;;;;;;8.45;3.58;;;12.70;99.90;;;;;;5081288;28;20039;-73
2021/08/03 06:01:53;;;;;;;8.50;3.85;;;12.70;99.90;;;;;;5066957;28;20639;-72
2021/08/03 06:04:21;;;;;;;8.45;3.55;;;12.80;99.90;;;;;;5073229;28;20036;-73
2021/08/03 06:06:49;;;;;;;5.38;3.30;;;12.90;99.90;;;;;;5072340;28;20044;-73
2021/08/03 06:09:16;;;;;;;6.95;3.67;;;12.90;99.90;;;;;;5078995;28;20048;-73
2021/08/03 06:11:50;;;;;;;6.28;3.30;;;13.00;99.90;;;;;;5067409;28;20067;-72
2021/08/03 06:14:30;;;;;;;5.93;3.38;;;13.10;99.90;;;;;;5080128;28;20044;-72
2021/08/03 06:17:01;;;;;;;7.82;3.28;;;13.20;99.90;;;;;;5077217;28;20028;-72
2021/08/03 06:19:31;;;;;;;4.55;2.97;;;13.30;99.90;;;;;;5079012;28;20036;-72
2021/08/03 06:21:57;;;;;;;9.97;3.17;;;13.30;99.90;;;;;;5075399;28;20041;-72
2021/08/03 06:24:23;;;;;;;9.57;3.63;;;13.30;99.90;;;;;;5079706;28;20827;-74
2021/08/03 06:26:50;;;;;;;7.03;3.25;;;13.50;99.90;;;;;;5061518;28;20066;-72
2021/08/03 06:29:18;;;;;;;4.72;2.85;;;13.60;99.90;;;;;;5083074;28;20426;-73
2021/08/03 06:31:44;;;;;;;5.32;3.05;;;13.70;99.90;;;;;;5063664;28;20547;-73
2021/08/03 06:34:12;;;;;;;5.90;3.15;;;13.70;99.90;;;;;;5079878;28;20036;-73
2021/08/03 06:36:39;;;;;;;4.43;2.47;;;13.80;99.90;;;;;;5049052;28;20460;-74
2021/08/03 06:39:05;;;;;;;7.60;2.40;;;13.90;99.90;;;;;;5062340;28;20461;-73
2021/08/03 06:41:38;;;;;;;6.93;2.07;;;14.00;99.90;;;;;;5060969;28;20052;-74
2021/08/03 06:44:20;;;;;;;5.03;1.98;;;14.20;99.90;;;;;;5069360;28;20322;-74
2021/08/03 06:46:49;;;;;;;4.63;1.27;;;14.30;99.90;;;;;;5074033;28;20040;-74
2021/08/03 06:49:19;;;;;;;3.42;1.02;;;14.40;99.90;;;;;;5083015;28;20047;-74
2021/08/03 06:51:46;;;;;;;4.63;1.43;;;14.50;99.90;;;;;;5085380;28;20040;-74
2021/08/03 06:54:12;;;;;;;4.82;1.50;;;14.60;99.90;;;;;;5081993;28;20044;-74
2021/08/03 06:56:48;;;;;;;4.60;1.52;;;14.70;99.90;;;;;;5067519;28;20037;-74
2021/08/03 06:59:29;;;;;;;3.03;0.88;;;14.80;99.90;;;;;;5077693;28;20068;-74
2021/08/03 07:02:04;;;;;;;2.72;0.93;;;14.90;99.90;;;;;;5077001;28;20044;-74
2021/08/03 07:05:01;;;;;;;2.40;0.90;;;15.10;99.90;;;;;;5072160;28;20155;-73
2021/08/03 07:07:30;;;;;;;3.30;1.00;;;15.20;99.90;;;;;;5069809;28;20044;-74
2021/08/03 07:10:00;;;;;;;4.23;1.23;;;15.30;99.90;;;;;;5083728;28;20635;-74
2021/08/03 07:12:27;;;;;;;2.53;0.85;;;15.40;99.90;;;;;;5082786;28;20286;-74
2021/08/03 07:14:53;;;;;;;4.00;0.98;;;15.60;99.90;;;;;;5060229;28;20186;-73
2021/08/03 07:17:22;;;;;;;3.63;1.00;;;15.70;99.90;;;;;;5078479;28;20046;-74
2021/08/03 07:19:50;;;;;;;3.80;1.17;;;15.80;99.90;;;;;;5088715;28;20040;-73
2021/08/03 07:22:16;;;;;;;3.88;1.23;;;15.90;99.90;;;;;;5084537;28;20048;-73
2021/08/03 07:24:44;;;;;;;5.03;1.17;;;16.00;99.90;;;;;;5088349;28;20554;-75
2021/08/03 07:27:17;;;;;;;3.70;1.50;;;16.00;99.90;;;;;;5086480;28;20116;-74
2021/08/03 07:29:43;;;;;;;3.55;1.40;;;16.20;99.90;;;;;;5087557;28;20119;-76
2021/08/03 07:32:11;;;;;;;2.25;0.95;;;16.30;99.90;;;;;;5079106;28;20062;-78
2021/08/03 07:34:41;;;;;;;3.50;1.63;;;16.50;99.90;;;;;;5053358;28;20179;-76
2021/08/03 07:37:09;;;;;;;4.65;1.65;;;16.60;99.90;;;;;;5082821;28;20119;-75
2021/08/03 07:39:36;;;;;;;3.63;1.60;;;16.70;99.90;;;;;;5069822;28;20033;-74
2021/08/03 07:42:03;;;;;;;3.03;1.40;;;16.80;99.90;;;;;;5078182;28;20107;-74
2021/08/03 07:44:29;;;;;;;3.80;1.02;;;17.00;99.80;;;;;;5083485;28;20064;-74
2021/08/03 07:46:55;;;;;;;3.08;1.00;;;17.10;99.30;;;;;;5068127;28;20068;-77
2021/08/03 07:49:21;;;;;;;5.40;1.30;;;17.20;99.30;;;;;;5083034;28;20036;-77
2021/08/03 07:51:48;;;;;;;2.55;1.08;;;17.30;99.20;;;;;;5067844;28;20044;-77
2021/08/03 07:54:14;;;;;;;4.22;0.85;;;17.50;98.90;;;;;;5071028;28;20094;-75
2021/08/03 07:56:40;;;;;;;3.72;0.70;;;17.60;98.10;;;;;;5067969;28;20388;-74
2021/08/03 07:59:06;;;;;;;2.72;0.80;;;17.70;97.60;;;;;;5071399;28;20095;-74
2021/08/03 08:01:33;;;;;;;4.25;1.33;;;17.70;96.70;;;;;;5077954;28;20411;-78
2021/08/03 08:03:59;;;;;;;3.47;0.98;;;17.80;96.10;;;;;;5085011;28;20052;-77
2021/08/03 08:06:25;;;;;;;2.33;0.70;;;17.80;95.80;;;;;;5069403;28;20169;-74
2021/08/03 08:08:51;;;;;;;2.92;0.90;;;17.90;96.00;;;;;;5057452;28;20083;-76
2021/08/03 08:11:17;;;;;;;4.00;0.90;;;18.00;95.80;;;;;;5073609;28;20076;-76
2021/08/03 08:13:46;;;;;;;1.90;0.60;;;18.10;95.50;;;;;;5068475;28;20040;-74
2021/08/03 08:16:12;;;;;;;1.92;0.60;;;18.20;95.10;;;;;;5053887;28;20503;-73
2021/08/03 08:18:39;;;;;;;2.58;0.85;;;18.40;94.50;;;;;;5067344;28;20071;-73
2021/08/03 08:21:05;;;;;;;2.70;0.75;;;18.40;94.40;;;;;;5073414;28;20265;-74
2021/08/03 08:23:31;;;;;;;2.13;0.70;;;18.50;93.40;;;;;;5086436;28;20044;-74
2021/08/03 08:25:58;;;;;;;2.67;0.60;;;18.50;93.30;;;;;;5074875;28;20040;-74
2021/08/03 08:28:25;;;;;;;1.80;0.75;;;18.70;93.30;;;;;;5076350;28;20049;-74
2021/08/03 08:30:52;;;;;;;3.42;1.00;;;18.80;92.30;;;;;;5080639;28;20151;-73
2021/08/03 08:33:18;;;;;;;2.35;0.60;;;18.90;92.10;;;;;;5080534;28;20041;-74
2021/08/03 08:35:44;;;;;;;2.78;0.65;;;19.00;92.00;;;;;;5082069;28;20043;-74
2021/08/03 08:38:10;;;;;;;1.80;0.77;;;19.00;90.30;;;;;;5073309;28;20407;-73
2021/08/03 08:40:37;;;;;;;1.63;0.50;;;18.90;90.00;;;;;;5059088;28;20566;-72
2021/08/03 08:43:03;;;;;;;3.20;0.93;;;18.70;90.60;;;;;;5080288;28;20051;-74
2021/08/03 08:45:30;;;;;;;6.25;1.00;;;18.70;90.70;;;;;;5075206;28;20040;-74
2021/08/03 08:47:57;;;;;;;3.92;0.80;;;18.50;90.60;;;;;;5056341;28;20032;-74
2021/08/03 08:50:25;;;;;;;3.38;0.90;;;18.40;89.50;;;;;;5087340;28;20119;-74
2021/08/03 08:52:54;;;;;;;2.53;0.90;;;18.30;88.80;;;;;;5074917;28;20044;-73
2021/08/03 08:55:21;;;;;;;3.90;1.08;;;18.10;88.50;;;;;;5076340;28;20550;-73
2021/08/03 08:57:49;;;;;;;3.75;0.88;;;18.00;89.70;;;;;;5079830;28;20036;-73
2021/08/03 09:00:15;;;;;;;2.65;0.80;;;17.90;89.50;;;;;;5071109;28;20036;-73
2021/08/03 09:02:43;;;;;;;3.08;1.10;;;17.80;90.30;;;;;;5063435;28;20537;-72
2021/08/03 09:05:14;;;;;;;2.53;1.23;;;17.80;90.60;;;;;;5075588;28;20497;-73
2021/08/03 09:07:53;;;;;;;2.60;1.10;;;17.80;91.40;;;;;;5077950;28;20074;-73
2021/08/03 09:10:30;;;;;;;2.42;1.10;;;17.70;92.30;;;;;;5081014;28;20654;-74
2021/08/03 09:13:14;;;;;;;2.75;1.00;;;17.70;92.90;;;;;;5075266;28;20430;-74
2021/08/03 09:15:46;;;;;;;3.08;1.20;;;17.70;92.00;;;;;;5075869;28;20509;-74
2021/08/03 09:18:34;;;;;;;2.25;1.05;;;17.80;92.30;;;;;;5074613;28;20491;-74
2021/08/03 09:21:00;;;;;;;1.50;1.00;;;17.70;92.50;;;;;;5072907;28;20047;-74
2021/08/03 09:24:05;;;;;;;2.92;1.20;;;17.70;92.00;;;;;;5050532;28;20131;-74
2021/08/03 09:26:58;;;;;;;3.45;0.98;;;17.60;91.90;;;;;;5076255;28;20123;-76
2021/08/03 09:29:24;;;;;;;1.42;0.80;;;17.50;92.10;;;;;;5052094;28;20132;-75
2021/08/03 09:31:55;;;;;;;3.67;1.20;;;17.40;92.20;;;;;;5074733;28;20136;-74
2021/08/03 09:34:21;;;;;;;2.92;1.25;;;17.40;92.40;;;;;;5074027;28;20471;-74
2021/08/03 09:36:51;;;;;;;4.82;1.25;;;17.40;92.90;;;;;;5073897;28;20043;-74
2021/08/03 09:39:43;;;;;;;3.22;1.13;;;17.30;93.30;;;;;;5075940;28;20056;-74
2021/08/03 09:42:12;;;;;;;5.63;1.10;;;17.40;93.10;;;;;;5059458;28;20179;-75
2021/08/03 09:44:48;;;;;;;3.88;1.50;;;17.40;92.70;;;;;;5050973;28;20048;-74
2021/08/03 09:47:15;;;;;;;1.58;0.90;;;17.40;92.60;;;;;;5070213;28;20036;-74
2021/08/03 09:49:44;;;;;;;2.10;0.95;;;17.40;92.40;;;;;;5036792;28;20146;-74
2021/08/03 09:52:13;;;;;;;3.78;1.50;;;17.40;92.80;;;;;;5076691;28;20493;-74
2021/08/03 09:54:43;;;;;;;3.40;1.10;;;17.40;93.10;;;;;;5069340;28;20069;-76
2021/08/03 09:57:25;;;;;;;2.83;1.25;;;17.40;93.80;;;;;;5074294;28;20028;-76
2021/08/03 09:59:53;;;;;;;2.28;0.98;;;17.40;93.20;;;;;;5036430;28;20043;-76
2021/08/03 10:02:23;;;;;;;3.03;1.17;;;17.50;93.30;;;;;;5076491;28;20040;-76
2021/08/03 10:04:50;;;;;;;3.28;1.40;;;17.50;93.20;;;;;;5074435;28;20036;-76
2021/08/03 10:07:16;;;;;;;2.05;1.40;;;17.60;92.80;;;;;;5074288;28;20041;-78
2021/08/03 10:09:44;;;;;;;2.28;1.20;;;17.60;92.30;;;;;;5072400;28;20494;-77
2021/08/03 10:12:10;;;;;;;4.45;1.13;;;17.60;91.70;;;;;;5072197;28;20036;-77
2021/08/03 10:14:39;;;;;;;3.15;1.20;;;17.70;91.60;;;;;;5075903;28;20553;-77
2021/08/03 10:17:07;;;;;;;1.77;0.90;;;17.70;90.30;;;;;;5080847;28;20107;-76
2021/08/03 10:19:38;;;;;;;2.72;1.02;;;17.80;90.60;;;;;;5067719;28;20040;-78
2021/08/03 10:22:14;;;;;;;3.45;1.00;;;17.90;90.70;;;;;;5074579;28;20482;-77
2021/08/03 10:24:55;;;;;;;4.90;1.40;;;18.00;90.00;;;;;;5075683;28;20151;-77
2021/08/03 10:27:20;;;;;;;2.72;1.10;;;18.10;89.60;;;;;;5074221;28;20035;-76
2021/08/03 10:29:52;;;;;;;4.10;1.30;;;18.10;88.50;;;;;;5060100;28;20082;-76
2021/08/03 10:32:42;;;;;;;2.83;1.00;;;18.30;86.70;;;;;;5072664;28;20045;-76
2021/08/03 10:35:32;;;;;;;3.28;1.30;;;18.40;87.90;;;;;;5078086;28;20479;-77
2021/08/03 10:38:01;;;;;;;3.00;1.15;;;18.50;86.60;;;;;;5069693;28;20044;-73
2021/08/03 10:40:49;;;;;;;2.42;1.30;;;18.60;87.10;;;;;;5077765;28;20032;-75
2021/08/03 10:43:22;;;;;;;3.88;1.02;;;18.70;90.10;;;;;;5058376;28;20048;-74
2021/08/03 10:46:09;;;;;;;2.35;1.35;;;18.90;87.50;;;;;;5068405;28;20040;-73
2021/08/03 10:48:38;;;;;;;2.10;1.00;;;19.00;86.50;;;;;;5072493;28;20036;-73
2021/08/03 10:51:28;;;;;;;2.22;1.05;;;19.00;83.50;;;;;;5076467;28;20037;-72
2021/08/03 10:53:57;;;;;;;2.20;1.05;;;19.00;82.30;;;;;;5074373;28;20052;-74
2021/08/03 10:56:23;;;;;;;1.92;0.80;;;19.00;80.50;;;;;;5074484;28;20036;-76
2021/08/03 10:58:49;;;;;;;2.30;1.15;;;19.00;80.40;;;;;;5062023;28;20029;-74
2021/08/03 11:01:48;;;;;;;3.85;1.10;;;19.00;80.30;;;;;;5080706;28;20036;-73
2021/08/03 11:04:41;;;;;;;3.20;1.00;;;19.20;79.60;;;;;;5071039;28;20415;-74
2021/08/03 11:07:26;;;;;;;2.92;1.50;;;19.30;80.60;;;;;;5074988;28;20040;-75
2021/08/03 11:09:55;;;;;;;3.10;1.20;;;19.40;77.10;;;;;;5077361;28;20043;-74
2021/08/03 11:12:46;;;;;;;5.38;1.42;;;19.30;77.40;;;;;;5076402;28;20037;-74
2021/08/03 11:15:21;;;;;;;2.67;1.42;;;19.40;76.40;;;;;;5079001;28;20060;-73
2021/08/03 11:18:08;;;;;;;1.92;0.90;;;19.60;75.40;;;;;;5074951;28;20379;-75
2021/08/03 11:20:37;;;;;;;2.30;1.13;;;19.70;77.10;;;;;;5077056;28;20055;-74
2021/08/03 11:23:04;;;;;;;1.50;0.80;;;19.80;75.10;;;;;;5071119;28;20117;-75
2021/08/03 11:25:31;;;;;;;1.85;1.10;;;20.00;75.80;;;;;;5074903;28;20036;-75
2021/08/03 11:28:10;;;;;;;2.13;1.00;;;20.20;73.90;;;;;;5073715;28;20070;-74
2021/08/03 11:30:36;;;;;;;3.15;1.00;;;20.50;72.70;;;;;;5058727;28;20700;-75
2021/08/03 11:33:02;;;;;;;2.72;0.88;;;20.70;68.00;;;;;;5076136;28;20037;-75
2021/08/03 11:35:29;;;;;;;2.25;1.17;;;20.80;68.80;;;;;;5072534;28;20127;-74
2021/08/03 11:38:17;;;;;;;3.00;0.98;;;21.00;70.90;;;;;;5078762;28;20478;-76
2021/08/03 11:40:43;;;;;;;2.63;1.05;;;21.30;71.30;;;;;;5081083;28;20518;-74
2021/08/03 11:43:09;;;;;;;2.88;1.02;;;21.40;71.10;;;;;;5069651;28;20110;-74
2021/08/03 11:45:37;;;;;;;2.95;0.95;;;21.40;68.60;;;;;;5074621;28;20066;-73
2021/08/03 11:48:05;;;;;;;3.95;1.38;;;21.20;66.50;;;;;;5057513;28;20032;-74
2021/08/03 11:50:40;;;;;;;1.85;1.08;;;21.20;68.40;;;;;;5081663;28;20043;-74
2021/08/03 11:53:08;;;;;;;2.15;0.95;;;21.10;68.30;;;;;;5073243;28;20043;-74
2021/08/03 11:55:36;;;;;;;3.10;0.95;;;21.10;65.40;;;;;;5059008;28;20151;-72
2021/08/03 11:58:05;;;;;;;2.55;1.02;;;21.20;63.60;;;;;;5072921;28;20086;-74
2021/08/03 12:00:32;;;;;;;3.42;1.15;;;21.30;62.70;;;;;;5068407;28;20033;-74
2021/08/03 12:02:59;;;;;;;3.75;1.10;;;21.50;65.20;;;;;;5054209;28;20059;-74
2021/08/03 12:05:32;;;;;;;3.05;1.08;;;21.60;61.00;;;;;;5071389;28;20039;-74
2021/08/03 12:08:00;;;;;;;2.58;1.00;;;21.70;64.20;;;;;;5075272;28;20311;-74
2021/08/03 12:10:29;;;;;;;2.80;1.10;;;21.90;65.70;;;;;;5072488;28;20474;-73
2021/08/03 12:12:55;;;;;;;3.72;1.13;;;22.20;62.60;;;;;;5077298;28;20058;-75
2021/08/03 12:15:24;;;;;;;2.63;1.38;;;22.30;60.00;;;;;;5075687;28;20068;-77
2021/08/03 12:18:02;;;;;;;2.95;1.00;;;22.40;62.40;;;;;;5065235;28;20166;-76
2021/08/03 12:20:41;;;;;;;3.88;1.00;;;22.40;59.00;;;;;;5074414;28;20105;-75
2021/08/03 12:23:31;;;;;;;3.35;1.00;;;22.40;58.30;;;;;;5074612;28;20053;-75
2021/08/03 12:26:05;;;;;;;2.15;0.80;;;22.30;58.50;;;;;;5070588;28;20136;-74
2021/08/03 12:28:35;;;;;;;4.07;1.40;;;21.90;57.70;;;;;;5077707;28;20497;-76
2021/08/03 12:31:16;;;;;;;;;;;21.50;63.40;;;;;;5074516;28;20074;-76
2021/08/03 12:33:42;;;;;;;1.65;1.08;;;21.20;68.90;;;;;;5076338;28;19920;-75
2021/08/03 12:36:15;;;;;;;2.97;1.77;;;21.00;70.10;;;;;;5076453;28;20041;-75
2021/08/03 12:39:00;;;;;;;1.35;0.82;;;20.80;67.70;;;;;;5065973;28;20483;-75
2021/08/03 12:41:30;;;;;;;4.28;1.58;;;20.80;71.20;;;;;;5072424;28;20044;-76
2021/08/03 12:43:57;;;;;;;3.08;1.02;;;20.70;72.50;;;;;;5066345;28;20094;-75
2021/08/03 12:46:33;;;;;;;2.92;0.98;;;20.80;72.40;;;;;;5074487;28;20055;-75
2021/08/03 12:48:59;;;;;;;1.88;0.90;;;20.80;71.30;;;;;;5070382;28;20048;-75
2021/08/03 12:51:28;;;;;;;3.40;1.10;;;20.70;67.90;;;;;;5066583;28;20123;-75
2021/08/03 12:54:11;;;;;;;3.70;1.20;;;20.70;67.40;;;;;;5072594;28;20040;-75
2021/08/03 12:56:51;;;;;;;3.08;0.85;;;21.00;67.40;;;;;;5065831;28;20513;-78
2021/08/03 12:59:30;;;;;;;;;;;21.30;62.80;;;;;;5074436;28;20904;-77
2021/08/03 13:01:56;;;;;;;3.72;1.30;;;21.20;62.80;;;;;;5078386;28;19927;-76
2021/08/03 13:04:22;;;;;;;1.70;1.27;;;21.10;69.10;;;;;;5071149;28;20046;-77